• Join FlightAware (Why Join?)
  • Login
  • US Flag 
09:58PM EDT


 

Airport Tracker/Info


-or-


 

Live Flight TrackerFlight Track Log ✈ N185PF ✈ 09-Oct-2013 ✈ KMHE - KFBL

Flight Track Log - Related Links

Times and Time Zones

All times are in EDT time to prevent confusion due to time zone crossing. See the N185PF flight status page for this flight to view local times or setup timezone preferences in your user account.

Time Position Orientation Groundspeed Altitude Reporting Facility
EDT Latitude Longitude Course Direction KTS MPH feet Rate Location/Type
09:00AM 43.8167 -97.7344 97° East  Level Estimated
09:01AM 43.8038 -97.6859 110° East  Level FlightAware Approximate
09:01AM 43.7589 -97.9253 106° East 83 96 3,800  Level Minneapolis Center
09:02AM 43.8109 -97.6352 100° East  Level Estimated
09:02AM 43.7544 -97.8803 98° East 95 109 4,700  Level Minneapolis Center
09:03AM 43.8009 -97.5855 105° East  Level FlightAware Approximate
09:03AM 43.7506 -97.8447 99° East 95 109 4,900  Level Minneapolis Center
09:04AM 43.7910 -97.5357 106° East  Level FlightAware Approximate
09:04AM 43.7472 -97.7981 96° East 105 121 4,900  Level Minneapolis Center
09:05AM 43.7809 -97.4860 106° East  Level FlightAware Approximate
09:05AM 43.7422 -97.7506 98° East 116 133 4,900  Level Minneapolis Center
09:06AM 43.7709 -97.4363 106° East  Level FlightAware Approximate
09:06AM 43.7383 -97.7014 96° East 122 140 4,900  Level Minneapolis Center
09:07AM 43.7328 -97.6539 99° East 125 144 4,900  Level Minneapolis Center
09:08AM 43.7283 -97.6072 97° East 124 143 5,000  Climbing Minneapolis Center
09:09AM 43.7242 -97.5500 96° East 125 144 4,900 -60 Descending Minneapolis Center
09:10AM 43.7206 -97.5014 96° East 126 145 4,900  Level Minneapolis Center
09:11AM 43.7167 -97.4533 96° East 126 145 5,000  Climbing Minneapolis Center
09:12AM 43.7125 -97.4044 97° East 127 146 5,000  Level Minneapolis Center
09:13AM 43.7089 -97.3544 96° East 129 148 5,000 -60 Level Minneapolis Center
09:14AM 43.7058 -97.3053 95° East 129 148 4,900 -60 Descending Minneapolis Center
09:15AM 43.7000 -97.2536 99° East 132 152 4,900  Level Minneapolis Center
09:16AM 43.6936 -97.2042 100° East 132 152 4,900  Level Minneapolis Center
09:17AM 43.6856 -97.1433 100° East 133 153 4,900  Level Minneapolis Center
09:18AM 43.6794 -97.0933 100° East 133 153 4,900  Level Minneapolis Center
09:19AM 43.6744 -97.0439 98° East 132 152 4,900  Level Minneapolis Center
09:20AM 43.6689 -96.9933 99° East 132 152 4,900  Level Minneapolis Center
09:21AM 43.6644 -96.9417 97° East 134 154 4,900  Level Minneapolis Center
09:23AM 43.6594 -96.8906 98° East 135 155 4,900  Level Minneapolis Center
09:24AM 43.6544 -96.8403 98° East 134 154 4,900  Level Minneapolis Center
09:25AM 43.6492 -96.7769 97° East 136 157 4,900  Level Minneapolis Center
09:26AM 43.6497 -96.7236 89° East 138 159 5,000  Climbing Minneapolis Center
09:27AM 43.6506 -96.6722 89° East 137 158 5,000  Level Minneapolis Center
09:28AM 43.6500 -96.6186 91° East 138 159 5,000  Level Minneapolis Center
09:29AM 43.6506 -96.5647 89° East 139 160 5,000 -60 Level Minneapolis Center
09:30AM 43.6492 -96.5114 92° East 140 161 4,900 -60 Descending Minneapolis Center
09:31AM 43.6497 -96.4561 89° East 142 163 4,900  Level Minneapolis Center
09:32AM 43.6517 -96.3903 88° East 143 165 4,900  Level Minneapolis Center
09:33AM 43.6511 -96.3339 91° East 144 166 4,900  Level Minneapolis Center
09:34AM 43.6508 -96.2764 90° East 147 169 4,900  Level Minneapolis Center
09:35AM 43.6500 -96.2172 91° East 150 173 4,900  Level Minneapolis Center
09:36AM 43.6500 -96.1581 90° East 153 176 5,000  Climbing Minneapolis Center
09:37AM 43.6506 -96.0983 89° East 155 178 4,900 -60 Descending Minneapolis Center
09:38AM 43.6500 -96.0394 91° East 155 178 4,900  Level Minneapolis Center
09:39AM 43.6481 -95.9692 92° East 154 177 4,900  Level Minneapolis Center
09:40AM 43.6472 -95.9125 91° East 152 175 4,900  Level Minneapolis Center
09:41AM 43.6461 -95.8567 92° East 149 171 4,900  Level Minneapolis Center
09:42AM 43.6444 -95.8014 92° East 147 169 4,900  Level Minneapolis Center
09:43AM 43.6458 -95.7458 88° East 146 168 4,900  Level Minneapolis Center
09:44AM 43.6450 -95.6900 91° East 146 168 4,900  Level Minneapolis Center
09:45AM 43.6425 -95.6344 94° East 145 167 4,900 -60 Level Minneapolis Center
09:46AM 43.6450 -95.5667 87° East 147 169 4,800  Descending Minneapolis Center
09:47AM 43.6633 -95.5122 65° Northeast 152 175 4,900  Climbing Minneapolis Center
09:48AM 43.6817 -95.4583 65° Northeast 154 177 4,900  Level Minneapolis Center
09:49AM 43.7006 -95.4047 64° Northeast 155 178 4,900  Level Minneapolis Center
09:50AM 43.7208 -95.3522 62° Northeast 155 178 4,900  Level Minneapolis Center
09:51AM 43.7414 -95.2989 62° Northeast 156 180 4,900  Level Minneapolis Center
09:52AM 43.7614 -95.2436 63° Northeast 158 182 4,900  Level Minneapolis Center
09:53AM 43.7844 -95.1789 64° Northeast 158 182 4,900  Level Minneapolis Center
09:54AM 43.8039 -95.1256 63° Northeast 157 181 4,900  Level Minneapolis Center
09:55AM 43.8258 -95.0711 61° Northeast 159 183 4,900  Level Minneapolis Center
09:56AM 43.8461 -95.0164 63° Northeast 160 184 4,900  Level Minneapolis Center
09:57AM 43.8658 -94.9625 63° Northeast 159 183 4,900  Level Minneapolis Center
09:58AM 43.8839 -94.9069 66° East 159 183 4,900  Level Minneapolis Center
09:59AM 43.9064 -94.8500 61° Northeast 159 183 4,900  Level Minneapolis Center
10:01AM 43.9256 -94.8003 62° Northeast 157 181 5,000  Climbing Minneapolis Center
10:02AM 43.9492 -94.7447 59° Northeast 155 178 4,900 -60 Descending Minneapolis Center
10:03AM 43.9653 -94.6903 68° East 158 182 4,900  Level Minneapolis Center
10:04AM 43.9875 -94.6269 64° Northeast 155 178 4,900  Level Minneapolis Center
10:05AM 44.0061 -94.5742 64° Northeast 153 176 4,900  Level Minneapolis Center
10:06AM 44.0222 -94.5225 67° East 154 177 4,900  Level Minneapolis Center
10:07AM 44.0414 -94.4697 63° Northeast 153 176 4,900  Level Minneapolis Center
10:08AM 44.0611 -94.4067 66° East 150 173 4,900  Level Minneapolis Center
10:09AM 44.0778 -94.3600 64° Northeast 153 176 4,900  Level Minneapolis Center
10:10AM 44.0961 -94.3053 65° Northeast 156 180 4,900  Level Minneapolis Center
10:11AM 44.1186 -94.2408 64° Northeast 155 178 4,900  Level Minneapolis Center
10:12AM 44.1381 -94.1878 63° Northeast 154 177 4,900  Level Minneapolis Center
10:13AM 44.1544 -94.1353 66° East 150 173 4,900  Level Minneapolis Center
10:14AM 44.1714 -94.0822 66° East 149 171 4,900 -60 Level Minneapolis Center
10:15AM 44.1889 -94.0294 65° Northeast 149 171 4,800  Descending Minneapolis Center
10:16AM 44.2031 -93.9747 70° East 150 173 4,900  Climbing Minneapolis Center
10:17AM 44.2164 -93.9203 71° East 149 171 4,900  Level Minneapolis Center
10:18AM 44.2292 -93.8556 75° East 144 166 4,900  Level Minneapolis Center
10:19AM 44.2375 -93.7997 78° East 146 168 5,000  Climbing Minneapolis Center
10:20AM 44.2464 -93.7464 77° East 142 163 5,000 -240 Level Minneapolis Center
10:21AM 44.2567 -93.6922 75° East 146 168 4,600 -480 Descending Minneapolis Center
10:22AM 44.2683 -93.6331 75° East 156 180 4,100 -540 Descending Minneapolis Center
10:23AM 44.2803 -93.5731 74° East 160 184 3,600 -540 Descending Minneapolis Center
10:24AM 44.2958 -93.5022 73° East 160 184 3,000 -480 Descending Minneapolis Center
10:25AM 44.3069 -93.4439 75° East 158 182 2,700 -300 Descending Minneapolis Center
10:26AM 44.3142 -93.3867 80° East 152 175 2,400 -360 Descending Minneapolis Center
10:27AM 44.3183 -93.3331 84° East 146 168 2,000 -240 Descending Minneapolis Center
10:28AM 44.3353 -93.3003 54° Northeast 135 155 2,000 -300 Level Minneapolis Center
10:29AM 44.3514 -93.3114 334° Northwest 102 117 1,400 -420 Descending Minneapolis Center
10:30AM 44.3353 -93.3169 194° South 77 89 1,200 -120 Descending Minneapolis Center
10:32AM 44.3167 -93.3333 212° Southwest 58 67 1,200  Level Minneapolis TRACON
10:34AM 44.3167 -93.3333 216° Southwest 58 67 1,200  Level Minneapolis TRACON